createdAt,value
2023-03-03T00:00:48.953Z,45698.00
2023-03-03T00:03:19.189Z,45692.00
2023-03-03T00:05:46.057Z,45694.00
2023-03-03T00:08:12.990Z,45690.00
2023-03-03T00:10:39.521Z,45698.00
2023-03-03T00:13:15.114Z,45706.00
2023-03-03T00:15:41.702Z,45716.00
2023-03-03T00:18:36.439Z,45710.00
2023-03-03T00:21:12.321Z,45702.00
2023-03-03T00:23:40.717Z,45722.00
2023-03-03T00:26:44.138Z,45678.03
2023-03-03T00:29:30.999Z,45678.03
2023-03-03T00:32:23.779Z,45698.00
2023-03-03T00:34:53.112Z,45698.00
2023-03-03T00:37:34.751Z,45690.00
2023-03-03T00:40:35.311Z,45682.00
2023-03-03T00:43:12.164Z,45694.00
2023-03-03T00:45:53.651Z,45712.00
2023-03-03T00:48:30.866Z,45686.00
2023-03-03T00:50:59.484Z,45700.00
2023-03-03T00:53:28.177Z,45716.00
2023-03-03T00:55:55.261Z,45702.00
2023-03-03T00:58:23.089Z,45706.00
2023-03-03T01:00:51.804Z,45692.00
2023-03-03T01:03:23.435Z,45702.00
2023-03-03T01:05:50.395Z,45706.00
2023-03-03T01:08:17.443Z,45694.00
2023-03-03T01:10:54.414Z,45716.00
2023-03-03T01:13:24.247Z,45706.00
2023-03-03T01:15:51.788Z,45684.00
2023-03-03T01:18:18.802Z,45708.00
2023-03-03T01:20:45.683Z,45688.00
2023-03-03T01:23:12.776Z,45700.00
2023-03-03T01:25:39.557Z,45694.00
2023-03-03T01:28:06.076Z,45702.00
2023-03-03T01:30:32.678Z,45716.00
2023-03-03T01:32:59.240Z,45690.00
2023-03-03T01:35:26.033Z,45698.00
2023-03-03T01:37:52.604Z,45694.00
2023-03-03T01:40:22.311Z,45708.00
2023-03-03T01:42:49.149Z,45706.00
2023-03-03T01:45:26.438Z,45702.00
2023-03-03T01:47:55.776Z,45686.00
2023-03-03T01:50:36.881Z,45678.03
2023-03-03T01:53:06.380Z,45727.97
2023-03-03T01:55:39.924Z,45702.00
2023-03-03T01:58:13.367Z,45706.00
2023-03-03T02:00:42.229Z,45698.00
2023-03-03T02:03:09.778Z,45698.00
2023-03-03T02:05:36.947Z,45690.00
2023-03-03T02:08:04.152Z,45712.00
2023-03-03T02:10:31.490Z,45698.00
2023-03-03T02:12:59.066Z,45714.00
2023-03-03T02:15:29.319Z,45686.00
2023-03-03T02:18:00.590Z,45718.00
2023-03-03T02:20:49.033Z,45714.00
2023-03-03T02:23:21.598Z,45694.00
2023-03-03T02:25:58.831Z,45702.00
2023-03-03T02:28:30.550Z,45686.00
2023-03-03T02:31:02.262Z,45714.00
2023-03-03T02:33:29.661Z,45702.00
2023-03-03T02:35:56.666Z,45702.00
2023-03-03T02:38:40.090Z,45722.00
2023-03-03T02:41:16.304Z,45710.00
2023-03-03T02:44:12.998Z,45712.00
2023-03-03T02:46:42.843Z,45729.97
2023-03-03T02:49:11.059Z,45682.00
2023-03-03T02:51:38.589Z,45718.00
2023-03-03T02:54:05.817Z,45702.00
2023-03-03T02:56:33.587Z,45718.00
2023-03-03T02:59:00.426Z,45729.97
2023-03-03T03:01:29.565Z,45729.97
2023-03-03T03:03:56.356Z,45712.00
2023-03-03T03:06:23.305Z,45714.00
2023-03-03T03:08:49.998Z,45714.00
2023-03-03T03:11:16.441Z,45702.00
2023-03-03T03:13:43.180Z,45722.00
2023-03-03T03:16:09.928Z,45718.00
2023-03-03T03:18:36.444Z,45729.97
2023-03-03T03:21:08.148Z,45725.97
2023-03-03T03:23:35.114Z,45692.00
2023-03-03T03:26:02.741Z,45718.00
2023-03-03T03:28:29.892Z,45710.00
2023-03-03T03:30:57.143Z,45706.00
2023-03-03T03:33:24.997Z,45733.97
2023-03-03T03:35:52.398Z,45712.00
2023-03-03T03:38:19.274Z,45722.00
2023-03-03T03:40:47.485Z,45727.97
2023-03-03T03:43:13.970Z,45733.97
2023-03-03T03:45:45.263Z,45733.97
2023-03-03T03:48:13.677Z,45706.00
2023-03-03T03:50:40.187Z,45720.00
2023-03-03T03:53:07.420Z,45722.00
2023-03-03T03:55:34.436Z,45733.97
2023-03-03T03:58:00.953Z,45733.97
2023-03-03T04:00:27.516Z,45725.97
2023-03-03T04:02:58.463Z,45725.97
2023-03-03T04:05:25.481Z,45737.97
2023-03-03T04:07:52.117Z,45716.00
2023-03-03T04:10:19.554Z,45720.00
2023-03-03T04:12:46.931Z,45722.00
2023-03-03T04:15:15.154Z,45741.97
2023-03-03T04:17:42.853Z,45749.97
2023-03-03T04:20:13.761Z,45718.00
2023-03-03T04:22:40.249Z,45731.97
2023-03-03T04:25:07.781Z,45718.00
2023-03-03T04:27:39.139Z,45718.00
2023-03-03T04:30:07.254Z,45729.97
2023-03-03T04:32:33.930Z,45733.97
2023-03-03T04:35:08.194Z,45722.00
2023-03-03T04:37:38.867Z,45708.00
2023-03-03T04:40:07.531Z,45735.97
2023-03-03T04:42:35.231Z,45714.00
2023-03-03T04:45:03.449Z,45749.97
2023-03-03T04:47:32.265Z,45727.97
2023-03-03T04:49:58.832Z,45739.97
2023-03-03T04:52:25.410Z,45733.97
2023-03-03T04:54:52.144Z,45747.97
2023-03-03T04:57:18.770Z,45745.97
2023-03-03T04:59:45.510Z,45749.97
2023-03-03T05:02:13.144Z,45737.97
2023-03-03T05:04:39.576Z,45757.97
2023-03-03T05:07:06.217Z,45725.97
2023-03-03T05:09:32.649Z,45751.97
2023-03-03T05:11:59.018Z,45733.97
2023-03-03T05:14:26.962Z,45722.00
2023-03-03T05:16:53.677Z,45718.00
2023-03-03T05:19:20.127Z,45724.00
2023-03-03T05:21:46.493Z,45718.00
2023-03-03T05:24:14.106Z,45747.97
2023-03-03T05:26:42.190Z,45737.97
2023-03-03T05:29:09.579Z,45718.00
2023-03-03T05:31:36.669Z,45743.97
2023-03-03T05:34:03.267Z,45729.97
2023-03-03T05:36:29.684Z,45745.97
2023-03-03T05:38:56.165Z,45725.97
2023-03-03T05:41:22.851Z,45745.97
2023-03-03T05:43:49.313Z,45749.97
2023-03-03T05:46:15.737Z,45714.00
2023-03-03T05:48:42.297Z,45724.00
2023-03-03T05:51:08.910Z,45718.00
2023-03-03T05:53:35.381Z,45727.97
2023-03-03T05:56:02.167Z,45729.97
2023-03-03T05:58:28.705Z,45737.97
2023-03-03T06:00:55.104Z,45751.97
2023-03-03T06:03:21.894Z,45753.97
2023-03-03T06:05:48.749Z,45737.97
2023-03-03T06:08:15.270Z,45753.97
2023-03-03T06:10:41.727Z,45759.97
2023-03-03T06:13:11.189Z,45763.97
2023-03-03T06:15:37.999Z,45722.00
2023-03-03T06:18:04.556Z,45710.00
2023-03-03T06:20:31.637Z,45733.97
2023-03-03T06:22:58.191Z,45725.97
2023-03-03T06:25:24.576Z,45725.97
2023-03-03T06:27:50.998Z,45753.97
2023-03-03T06:30:18.820Z,45773.94
2023-03-03T06:32:45.783Z,45745.97
2023-03-03T06:35:12.321Z,45767.97
2023-03-03T06:37:39.358Z,45725.97
2023-03-03T06:40:06.794Z,45739.97
2023-03-03T06:42:33.227Z,45741.97
2023-03-03T06:44:59.690Z,45755.97
2023-03-03T06:47:26.332Z,45729.97
2023-03-03T06:49:53.380Z,45753.97
2023-03-03T06:52:25.799Z,45733.97
2023-03-03T06:54:57.880Z,45749.97
2023-03-03T06:57:30.484Z,45737.97
2023-03-03T07:00:17.755Z,45737.97
2023-03-03T07:02:44.185Z,45751.97
2023-03-03T07:05:15.111Z,45735.97
2023-03-03T07:07:41.938Z,45729.97
2023-03-03T07:10:28.800Z,45725.97
2023-03-03T07:13:02.005Z,45749.97
2023-03-03T07:15:35.122Z,45729.97
2023-03-03T07:18:03.082Z,45741.97
2023-03-03T07:20:36.622Z,45739.97
2023-03-03T07:23:34.366Z,45749.97
2023-03-03T07:26:00.796Z,45731.97
2023-03-03T07:28:29.572Z,45729.97
2023-03-03T07:30:57.681Z,45745.97
2023-03-03T07:33:34.946Z,45739.97
2023-03-03T07:36:03.592Z,45725.97
2023-03-03T07:38:42.056Z,45729.97
2023-03-03T07:41:25.625Z,45747.97
2023-03-03T07:43:57.112Z,45735.97
2023-03-03T07:46:29.193Z,45733.97
2023-03-03T07:48:58.959Z,45725.97
2023-03-03T07:51:28.962Z,45716.00
2023-03-03T07:54:18.320Z,45737.97
2023-03-03T07:56:45.726Z,45749.97
2023-03-03T07:59:24.465Z,45718.00
2023-03-03T08:01:58.715Z,45722.00
2023-03-03T08:05:05.334Z,45747.97
2023-03-03T08:07:35.517Z,45741.97
2023-03-03T08:10:02.258Z,45737.97
2023-03-03T08:12:39.310Z,45733.97
2023-03-03T08:15:19.397Z,45739.97
2023-03-03T08:17:47.069Z,45714.00
2023-03-03T08:20:34.892Z,45741.97
2023-03-03T08:23:01.402Z,45733.97
2023-03-03T08:25:27.813Z,45749.97
2023-03-03T08:27:54.610Z,45737.97
2023-03-03T08:30:21.014Z,45737.97
2023-03-03T08:32:47.892Z,45741.97
2023-03-03T08:35:14.291Z,45708.00
2023-03-03T08:37:40.669Z,45733.97
2023-03-03T08:40:07.845Z,45725.97
2023-03-03T08:42:34.252Z,45716.00
2023-03-03T08:45:01.004Z,45737.97
2023-03-03T08:47:27.391Z,45725.97
2023-03-03T08:49:54.434Z,45737.97
2023-03-03T08:52:21.008Z,45722.00
2023-03-03T08:54:47.473Z,45747.97
2023-03-03T08:57:13.943Z,45706.00
2023-03-03T08:59:40.554Z,45741.97
2023-03-03T09:02:07.262Z,45749.97
2023-03-03T09:04:34.335Z,45725.97
2023-03-03T09:07:00.779Z,45725.97
2023-03-03T09:09:27.642Z,45729.97
2023-03-03T09:11:58.367Z,45716.00
2023-03-03T09:14:28.893Z,45727.97
2023-03-03T09:16:56.738Z,45718.00
2023-03-03T09:19:32.277Z,45714.00
2023-03-03T09:22:16.579Z,45718.00
2023-03-03T09:24:42.968Z,45729.97
2023-03-03T09:27:29.369Z,45729.97
2023-03-03T09:30:01.131Z,45714.00
2023-03-03T09:32:35.166Z,45733.97
2023-03-03T09:35:40.279Z,45704.00
2023-03-03T09:38:33.795Z,45722.00
2023-03-03T09:41:37.809Z,45722.00
2023-03-03T09:44:17.176Z,45729.97
2023-03-03T09:46:52.505Z,45727.97
2023-03-03T09:49:18.879Z,45737.97
2023-03-03T09:52:03.371Z,45720.00
2023-03-03T09:55:01.012Z,45702.00
2023-03-03T09:57:32.655Z,45722.00
2023-03-03T10:00:18.708Z,45710.00
2023-03-03T10:02:53.486Z,45729.97
2023-03-03T10:05:42.202Z,45708.00
2023-03-03T10:08:26.937Z,45724.00
2023-03-03T10:11:03.276Z,45720.00
2023-03-03T10:13:40.172Z,45725.97
2023-03-03T10:16:32.308Z,45714.00
2023-03-03T10:19:02.928Z,45718.00
2023-03-03T10:21:50.570Z,45724.00
2023-03-03T10:24:29.324Z,45698.00
2023-03-03T10:27:22.005Z,45698.00
2023-03-03T10:30:39.970Z,45724.00
2023-03-03T10:33:20.715Z,45698.00
2023-03-03T10:36:07.084Z,45731.97
2023-03-03T10:38:55.452Z,45718.00
2023-03-03T10:41:27.685Z,45741.97
2023-03-03T10:44:18.307Z,45731.97
2023-03-03T10:47:22.409Z,45714.00
2023-03-03T10:50:15.266Z,45725.97
2023-03-03T10:53:05.741Z,45696.00
2023-03-03T10:55:46.607Z,45735.97
2023-03-03T10:58:40.746Z,45710.00
2023-03-03T11:01:22.338Z,45710.00
2023-03-03T11:04:25.686Z,45725.97
2023-03-03T11:07:08.781Z,45704.00
2023-03-03T11:09:41.353Z,45718.00
2023-03-03T11:12:17.869Z,45704.00
2023-03-03T11:14:55.452Z,45704.00
2023-03-03T11:17:27.884Z,45702.00
2023-03-03T11:20:16.732Z,45696.00
2023-03-03T11:22:53.776Z,45725.97
2023-03-03T11:25:30.249Z,45710.00
2023-03-03T11:28:10.799Z,45682.00
2023-03-03T11:30:49.444Z,45678.03
2023-03-03T11:33:23.127Z,45694.00
2023-03-03T11:35:49.484Z,45696.00
2023-03-03T11:38:33.291Z,45698.00
2023-03-03T11:41:11.588Z,45684.00
2023-03-03T11:43:49.696Z,45668.03
2023-03-03T11:46:20.151Z,45684.00
2023-03-03T11:49:05.276Z,45690.00
2023-03-03T11:51:50.654Z,45702.00
2023-03-03T11:54:28.901Z,45692.00
2023-03-03T11:57:12.763Z,45682.00
2023-03-03T11:59:56.008Z,45682.00
2023-03-03T12:02:46.988Z,45694.00
2023-03-03T12:05:31.509Z,45690.00
2023-03-03T12:08:31.148Z,45696.00
2023-03-03T12:11:09.732Z,45676.03
2023-03-03T12:13:53.548Z,45658.03
2023-03-03T12:16:50.942Z,45682.00
2023-03-03T12:19:26.435Z,45650.03
2023-03-03T12:22:04.904Z,45658.03
2023-03-03T12:24:50.546Z,45694.00
2023-03-03T12:27:33.739Z,45674.03
2023-03-03T12:30:24.632Z,45682.00
2023-03-03T12:33:11.027Z,45686.00
2023-03-03T12:35:40.586Z,45674.03
2023-03-03T12:38:51.592Z,45664.03
2023-03-03T12:41:56.133Z,45672.03
2023-03-03T12:44:44.154Z,45682.00
2023-03-03T12:47:52.364Z,45662.03
2023-03-03T12:50:31.014Z,45656.03
2023-03-03T12:53:03.421Z,45644.03
2023-03-03T12:55:47.491Z,45644.03
2023-03-03T12:58:45.140Z,45648.03
2023-03-03T13:01:20.404Z,45626.06
2023-03-03T13:04:05.757Z,45638.06
2023-03-03T13:06:40.269Z,45628.06
2023-03-03T13:09:06.715Z,45618.06
2023-03-03T13:11:53.897Z,45598.06
2023-03-03T13:14:33.850Z,45590.09
2023-03-03T13:17:12.208Z,45596.06
2023-03-03T13:19:50.420Z,45592.09
2023-03-03T13:22:31.572Z,45566.09
2023-03-03T13:25:23.135Z,45558.09
2023-03-03T13:27:54.399Z,45530.13
2023-03-03T13:30:28.284Z,45530.13
2023-03-03T13:33:16.892Z,45514.13
2023-03-03T13:36:07.641Z,45498.16
2023-03-03T13:38:57.815Z,45496.16
2023-03-03T13:41:27.181Z,45506.16
2023-03-03T13:43:59.904Z,45482.16
2023-03-03T13:47:02.302Z,45486.16
2023-03-03T13:49:36.104Z,45480.16
2023-03-03T13:52:10.480Z,45472.16
2023-03-03T13:55:04.806Z,45470.19
2023-03-03T13:58:00.184Z,45472.16
2023-03-03T14:00:35.947Z,45450.19
2023-03-03T14:03:15.023Z,45462.19
2023-03-03T14:06:04.569Z,45460.19
2023-03-03T14:08:49.937Z,45466.19
2023-03-03T14:11:26.439Z,45462.19
2023-03-03T14:14:27.090Z,45454.19
2023-03-03T14:17:06.046Z,45452.19
2023-03-03T14:19:36.957Z,45438.19
2023-03-03T14:22:16.381Z,45484.16
2023-03-03T14:25:06.230Z,45466.19
2023-03-03T14:27:40.681Z,45470.19
2023-03-03T14:30:22.436Z,45454.19
2023-03-03T14:33:07.249Z,45458.19
2023-03-03T14:35:41.235Z,45436.19
2023-03-03T14:38:13.785Z,45442.19
2023-03-03T14:40:45.506Z,45442.19
2023-03-03T14:43:36.508Z,45456.19
2023-03-03T14:46:37.313Z,45446.19
2023-03-03T14:49:25.983Z,45448.19
2023-03-03T14:51:52.500Z,45458.19
2023-03-03T14:54:34.670Z,45454.19
2023-03-03T14:57:46.096Z,45470.19
2023-03-03T15:00:12.920Z,45466.19
2023-03-03T15:03:16.359Z,45470.19
2023-03-03T15:05:57.947Z,45442.19
2023-03-03T15:08:34.356Z,45490.16
2023-03-03T15:11:28.223Z,45482.16
2023-03-03T15:14:10.052Z,45478.16
2023-03-03T15:16:36.556Z,45514.13
2023-03-03T15:19:44.728Z,45502.16
2023-03-03T15:22:36.544Z,45498.16
2023-03-03T15:25:18.765Z,45488.16
2023-03-03T15:28:22.542Z,45496.16
2023-03-03T15:30:58.949Z,45502.16
2023-03-03T15:33:40.823Z,45512.16
2023-03-03T15:36:15.474Z,45510.16
2023-03-03T15:38:54.558Z,45506.16
2023-03-03T15:41:42.588Z,45526.13
2023-03-03T15:44:35.023Z,45488.16
2023-03-03T15:47:28.570Z,45506.16
2023-03-03T15:50:06.608Z,45518.13
2023-03-03T15:52:36.098Z,45502.16
2023-03-03T15:55:29.372Z,45526.13
2023-03-03T15:58:13.611Z,45522.13
2023-03-03T16:01:10.668Z,45516.13
2023-03-03T16:03:46.327Z,45490.16
2023-03-03T16:06:22.171Z,45514.13
2023-03-03T16:09:02.942Z,45524.13
2023-03-03T16:11:47.061Z,45538.13
2023-03-03T16:14:25.423Z,45514.13
2023-03-03T16:17:03.289Z,45526.13
2023-03-03T16:19:45.133Z,45526.13
2023-03-03T16:22:41.975Z,45554.09
2023-03-03T16:25:32.090Z,45530.13
2023-03-03T16:28:05.803Z,45526.13
2023-03-03T16:30:34.874Z,45546.13
2023-03-03T16:33:13.563Z,45552.13
2023-03-03T16:35:50.514Z,45542.13
2023-03-03T16:38:24.273Z,45546.13
2023-03-03T16:41:01.610Z,45538.13
2023-03-03T16:43:27.921Z,45574.09
2023-03-03T16:46:02.707Z,45558.09
2023-03-03T16:48:36.166Z,45542.13
2023-03-03T16:51:25.971Z,45558.09
2023-03-03T16:54:16.224Z,45558.09
2023-03-03T16:56:48.985Z,45558.09
2023-03-03T16:59:36.428Z,45546.13
2023-03-03T17:02:21.675Z,45578.09
2023-03-03T17:05:00.582Z,45582.09
2023-03-03T17:08:13.462Z,45602.06
2023-03-03T17:10:50.899Z,45574.09
2023-03-03T17:13:32.347Z,45604.06
2023-03-03T17:16:51.469Z,45568.09
2023-03-03T17:19:41.518Z,45592.09
2023-03-03T17:22:46.268Z,45614.06
2023-03-03T17:25:21.333Z,45606.06
2023-03-03T17:28:13.572Z,45610.06
2023-03-03T17:30:59.544Z,45618.06
2023-03-03T17:33:37.977Z,45620.06
2023-03-03T17:36:18.304Z,45624.06
2023-03-03T17:39:18.215Z,45632.06
2023-03-03T17:42:04.166Z,45634.06
2023-03-03T17:45:02.426Z,45642.03
2023-03-03T17:48:03.729Z,45622.06
2023-03-03T17:50:36.029Z,45646.03
2023-03-03T17:53:26.685Z,45638.06
2023-03-03T17:56:17.871Z,45664.03
2023-03-03T17:59:05.920Z,45654.03
2023-03-03T18:02:02.552Z,45652.03
2023-03-03T18:05:00.941Z,45646.03
2023-03-03T18:07:43.597Z,45654.03
2023-03-03T18:10:32.798Z,45648.03
2023-03-03T18:13:07.333Z,45658.03
2023-03-03T18:15:36.649Z,45650.03
2023-03-03T18:18:41.184Z,45630.06
2023-03-03T18:21:20.901Z,45654.03
2023-03-03T18:23:48.967Z,45642.03
2023-03-03T18:26:41.249Z,45650.03
2023-03-03T18:29:21.235Z,45630.06
2023-03-03T18:31:54.254Z,45624.06
2023-03-03T18:34:20.619Z,45626.06
2023-03-03T18:37:08.909Z,45626.06
2023-03-03T18:39:41.626Z,45628.06
2023-03-03T18:42:12.365Z,45638.06
2023-03-03T18:44:39.232Z,45646.03
2023-03-03T18:47:05.643Z,45618.06
2023-03-03T18:50:05.333Z,45630.06
2023-03-03T18:52:35.177Z,45638.06
2023-03-03T18:55:10.633Z,45614.06
2023-03-03T18:57:38.180Z,45610.06
2023-03-03T19:00:42.984Z,45636.06
2023-03-03T19:03:28.473Z,45642.03
2023-03-03T19:05:57.812Z,45636.06
2023-03-03T19:08:44.606Z,45624.06
2023-03-03T19:11:36.552Z,45636.06
2023-03-03T19:14:18.532Z,45602.06
2023-03-03T19:16:45.497Z,45610.06
2023-03-03T19:19:14.718Z,45618.06
2023-03-03T19:21:42.823Z,45592.09
2023-03-03T19:24:27.262Z,45618.06
2023-03-03T19:27:11.608Z,45616.06
2023-03-03T19:29:44.176Z,45612.06
2023-03-03T19:32:26.209Z,45622.06
2023-03-03T19:35:15.423Z,45624.06
2023-03-03T19:37:55.539Z,45624.06
2023-03-03T19:40:58.215Z,45614.06
2023-03-03T19:43:35.574Z,45602.06
2023-03-03T19:46:28.906Z,45612.06
2023-03-03T19:49:24.199Z,45622.06
2023-03-03T19:52:05.193Z,45616.06
2023-03-03T19:54:46.874Z,45622.06
2023-03-03T19:57:28.618Z,45626.06
2023-03-03T20:00:05.443Z,45634.06
2023-03-03T20:03:21.186Z,45604.06
2023-03-03T20:06:20.411Z,45614.06
2023-03-03T20:09:09.746Z,45598.06
2023-03-03T20:11:48.347Z,45626.06
2023-03-03T20:14:39.226Z,45622.06
2023-03-03T20:17:44.385Z,45610.06
2023-03-03T20:20:36.076Z,45630.06
2023-03-03T20:23:29.613Z,45604.06
2023-03-03T20:26:43.633Z,45622.06
2023-03-03T20:29:36.418Z,45618.06
2023-03-03T20:32:14.964Z,45614.06
2023-03-03T20:35:09.697Z,45618.06
2023-03-03T20:37:58.984Z,45606.06
2023-03-03T20:40:38.909Z,45630.06
2023-03-03T20:43:31.026Z,45622.06
2023-03-03T20:46:16.476Z,45618.06
2023-03-03T20:49:01.524Z,45604.06
2023-03-03T20:51:46.969Z,45606.06
2023-03-03T20:54:24.409Z,45626.06
2023-03-03T20:57:21.813Z,45614.06
2023-03-03T21:00:00.439Z,45610.06
2023-03-03T21:02:40.106Z,45608.06
2023-03-03T21:05:18.698Z,45620.06
2023-03-03T21:07:57.519Z,45614.06
2023-03-03T21:10:27.491Z,45608.06
2023-03-03T21:12:58.521Z,45628.06
2023-03-03T21:15:31.053Z,45626.06
2023-03-03T21:17:58.795Z,45636.06
2023-03-03T21:20:32.484Z,45610.06
2023-03-03T21:22:59.637Z,45594.09
2023-03-03T21:25:41.091Z,45628.06
2023-03-03T21:28:29.787Z,45600.06
2023-03-03T21:31:04.064Z,45628.06
2023-03-03T21:33:42.507Z,45602.06
2023-03-03T21:36:11.023Z,45626.06
2023-03-03T21:38:38.896Z,45618.06
2023-03-03T21:41:06.562Z,45630.06
2023-03-03T21:43:38.300Z,45606.06
2023-03-03T21:46:05.238Z,45594.09
2023-03-03T21:48:32.178Z,45634.06
2023-03-03T21:50:58.549Z,45618.06
2023-03-03T21:53:26.596Z,45592.09
2023-03-03T21:55:53.671Z,45614.06
2023-03-03T21:58:20.268Z,45618.06
2023-03-03T22:00:46.939Z,45602.06
2023-03-03T22:03:15.182Z,45626.06
2023-03-03T22:05:41.744Z,45616.06
2023-03-03T22:08:08.132Z,45618.06
2023-03-03T22:10:34.529Z,45622.06
2023-03-03T22:13:01.587Z,45642.03
2023-03-03T22:15:30.398Z,45626.06
2023-03-03T22:17:57.080Z,45628.06
2023-03-03T22:20:23.494Z,45642.03
2023-03-03T22:22:49.899Z,45638.06
2023-03-03T22:25:16.451Z,45626.06
2023-03-03T22:27:42.854Z,45618.06
2023-03-03T22:30:10.089Z,45602.06
2023-03-03T22:32:36.471Z,45622.06
2023-03-03T22:35:02.947Z,45618.06
2023-03-03T22:37:29.317Z,45638.06
2023-03-03T22:39:56.092Z,45646.03
2023-03-03T22:42:23.366Z,45626.06
2023-03-03T22:44:49.774Z,45620.06
2023-03-03T22:47:16.410Z,45620.06
2023-03-03T22:49:42.833Z,45618.06
2023-03-03T22:52:09.223Z,45630.06
2023-03-03T22:54:35.604Z,45610.06
2023-03-03T22:57:01.965Z,45634.06
2023-03-03T22:59:28.518Z,45622.06
2023-03-03T23:01:56.018Z,45640.03
2023-03-03T23:04:22.490Z,45634.06
2023-03-03T23:06:49.937Z,45606.06
2023-03-03T23:09:16.306Z,45610.06
2023-03-03T23:11:42.692Z,45612.06
2023-03-03T23:14:09.156Z,45620.06
2023-03-03T23:16:35.549Z,45626.06
2023-03-03T23:19:02.026Z,45622.06
2023-03-03T23:21:28.495Z,45622.06
2023-03-03T23:23:54.924Z,45626.06
2023-03-03T23:26:21.514Z,45634.06
2023-03-03T23:28:47.998Z,45606.06
2023-03-03T23:31:14.545Z,45634.06
2023-03-03T23:33:40.946Z,45628.06
2023-03-03T23:36:07.640Z,45616.06
2023-03-03T23:38:34.058Z,45632.06
2023-03-03T23:41:00.427Z,45626.06
2023-03-03T23:43:26.815Z,45624.06
2023-03-03T23:45:53.256Z,45620.06
2023-03-03T23:48:20.628Z,45624.06
2023-03-03T23:50:48.210Z,45656.03
2023-03-03T23:53:14.620Z,45622.06
2023-03-03T23:55:41.468Z,45618.06
2023-03-03T23:58:07.925Z,45618.06
